sensor_id;sensor_type;location;lat;lon;timestamp;pressure;altitude;pressure_sealevel;temperature;humidity
28181;BME280;15464;50.988;10.318;2024-01-25T00:00:20;99678.94;;;7.25;76.57
28181;BME280;15464;50.988;10.318;2024-01-25T00:02:47;99685.94;;;7.41;76.26
28181;BME280;15464;50.988;10.318;2024-01-25T00:05:14;99684.06;;;7.28;76.94
28181;BME280;15464;50.988;10.318;2024-01-25T00:07:50;99666.22;;;7.32;76.25
28181;BME280;15464;50.988;10.318;2024-01-25T00:10:17;99682.19;;;7.31;76.41
28181;BME280;15464;50.988;10.318;2024-01-25T00:12:45;99685.44;;;7.20;78.17
28181;BME280;15464;50.988;10.318;2024-01-25T00:15:12;99677.28;;;7.24;77.39
28181;BME280;15464;50.988;10.318;2024-01-25T00:17:39;99670.28;;;7.23;77.92
28181;BME280;15464;50.988;10.318;2024-01-25T00:20:06;99671.78;;;7.27;77.19
28181;BME280;15464;50.988;10.318;2024-01-25T00:22:33;99683.72;;;7.19;78.90
28181;BME280;15464;50.988;10.318;2024-01-25T00:25:00;99678.38;;;7.20;78.45
28181;BME280;15464;50.988;10.318;2024-01-25T00:27:27;99688.34;;;7.15;79.20
28181;BME280;15464;50.988;10.318;2024-01-25T00:29:53;99678.47;;;7.19;79.00
28181;BME280;15464;50.988;10.318;2024-01-25T00:32:20;99688.72;;;7.09;80.54
28181;BME280;15464;50.988;10.318;2024-01-25T00:34:47;99686.94;;;7.10;79.89
28181;BME280;15464;50.988;10.318;2024-01-25T00:37:15;99698.63;;;7.06;80.70
28181;BME280;15464;50.988;10.318;2024-01-25T00:39:42;99696.59;;;6.95;82.25
28181;BME280;15464;50.988;10.318;2024-01-25T00:42:12;99697.44;;;6.96;81.97
28181;BME280;15464;50.988;10.318;2024-01-25T00:44:40;99705.34;;;6.96;81.75
28181;BME280;15464;50.988;10.318;2024-01-25T00:47:07;99705.44;;;6.94;81.40
28181;BME280;15464;50.988;10.318;2024-01-25T00:49:35;99712.41;;;6.95;81.42
28181;BME280;15464;50.988;10.318;2024-01-25T00:52:03;99708.00;;;6.96;81.02
28181;BME280;15464;50.988;10.318;2024-01-25T00:54:30;99716.94;;;6.93;80.91
28181;BME280;15464;50.988;10.318;2024-01-25T00:56:58;99714.13;;;6.96;80.44
28181;BME280;15464;50.988;10.318;2024-01-25T00:59:26;99714.13;;;6.96;80.27
28181;BME280;15464;50.988;10.318;2024-01-25T01:01:53;99710.06;;;6.91;80.15
28181;BME280;15464;50.988;10.318;2024-01-25T01:04:22;99705.78;;;6.88;80.36
28181;BME280;15464;50.988;10.318;2024-01-25T01:06:49;99710.41;;;6.84;80.58
28181;BME280;15464;50.988;10.318;2024-01-25T01:09:16;99709.56;;;6.84;79.82
28181;BME280;15464;50.988;10.318;2024-01-25T01:11:44;99712.03;;;6.87;79.13
28181;BME280;15464;50.988;10.318;2024-01-25T01:14:11;99718.91;;;6.89;79.12
28181;BME280;15464;50.988;10.318;2024-01-25T01:16:38;99722.47;;;6.88;79.08
28181;BME280;15464;50.988;10.318;2024-01-25T01:19:05;99722.75;;;6.84;79.39
28181;BME280;15464;50.988;10.318;2024-01-25T01:21:34;99729.03;;;6.81;80.08
28181;BME280;15464;50.988;10.318;2024-01-25T01:24:02;99734.22;;;6.83;79.69
28181;BME280;15464;50.988;10.318;2024-01-25T01:26:28;99732.53;;;6.82;79.61
28181;BME280;15464;50.988;10.318;2024-01-25T01:28:55;99734.41;;;6.80;79.41
28181;BME280;15464;50.988;10.318;2024-01-25T01:31:22;99728.09;;;6.82;78.73
28181;BME280;15464;50.988;10.318;2024-01-25T01:33:49;99731.84;;;6.78;79.19
28181;BME280;15464;50.988;10.318;2024-01-25T01:36:16;99729.50;;;6.74;79.65
28181;BME280;15464;50.988;10.318;2024-01-25T01:38:43;99734.00;;;6.72;79.88
28181;BME280;15464;50.988;10.318;2024-01-25T01:41:10;99732.38;;;6.69;80.19
28181;BME280;15464;50.988;10.318;2024-01-25T01:43:39;99739.53;;;6.67;79.97
28181;BME280;15464;50.988;10.318;2024-01-25T01:46:32;99738.00;;;6.63;79.70
28181;BME280;15464;50.988;10.318;2024-01-25T01:49:01;99732.38;;;6.69;78.66
28181;BME280;15464;50.988;10.318;2024-01-25T01:51:29;99734.84;;;6.72;78.48
28181;BME280;15464;50.988;10.318;2024-01-25T01:53:57;99739.53;;;6.67;78.18
28181;BME280;15464;50.988;10.318;2024-01-25T01:56:27;99736.78;;;6.69;77.81
28181;BME280;15464;50.988;10.318;2024-01-25T01:58:59;99734.84;;;6.72;77.18
28181;BME280;15464;50.988;10.318;2024-01-25T02:01:27;99730.44;;;6.73;77.94
28181;BME280;15464;50.988;10.318;2024-01-25T02:03:55;99736.13;;;6.65;77.41
28181;BME280;15464;50.988;10.318;2024-01-25T02:06:26;99745.47;;;6.71;77.26
28181;BME280;15464;50.988;10.318;2024-01-25T02:08:52;99746.31;;;6.71;76.93
28181;BME280;15464;50.988;10.318;2024-01-25T02:11:19;99745.66;;;6.68;77.93
28181;BME280;15464;50.988;10.318;2024-01-25T02:13:46;99746.00;;;6.62;78.59
28181;BME280;15464;50.988;10.318;2024-01-25T02:16:13;99737.84;;;6.66;77.53
28181;BME280;15464;50.988;10.318;2024-01-25T02:18:44;99745.31;;;6.58;78.76
28181;BME280;15464;50.988;10.318;2024-01-25T02:21:11;99742.59;;;6.60;78.09
28181;BME280;15464;50.988;10.318;2024-01-25T02:23:38;99736.47;;;6.59;78.85
28181;BME280;15464;50.988;10.318;2024-01-25T02:26:05;99743.53;;;6.59;78.53
28181;BME280;15464;50.988;10.318;2024-01-25T02:28:32;99742.16;;;6.67;77.67
28181;BME280;15464;50.988;10.318;2024-01-25T02:31:01;99746.09;;;6.60;78.09
28181;BME280;15464;50.988;10.318;2024-01-25T02:33:28;99735.97;;;6.53;79.38
28181;BME280;15464;50.988;10.318;2024-01-25T02:35:55;99733.91;;;6.58;78.35
28181;BME280;15464;50.988;10.318;2024-01-25T02:38:22;99732.56;;;6.66;76.88
28181;BME280;15464;50.988;10.318;2024-01-25T02:40:49;99720.81;;;6.56;78.09
28181;BME280;15464;50.988;10.318;2024-01-25T02:43:17;99706.97;;;6.53;78.98
28181;BME280;15464;50.988;10.318;2024-01-25T02:45:44;99715.81;;;6.52;78.49
28181;BME280;15464;50.988;10.318;2024-01-25T02:48:11;99709.97;;;6.46;78.93
28181;BME280;15464;50.988;10.318;2024-01-25T02:50:38;99715.56;;;6.40;79.66
28181;BME280;15464;50.988;10.318;2024-01-25T02:53:05;99704.84;;;6.43;78.45
28181;BME280;15464;50.988;10.318;2024-01-25T02:55:31;99700.78;;;6.38;79.25
28181;BME280;15464;50.988;10.318;2024-01-25T02:57:58;99697.13;;;6.40;79.42
28181;BME280;15464;50.988;10.318;2024-01-25T03:00:25;99701.47;;;6.41;79.57
28181;BME280;15464;50.988;10.318;2024-01-25T03:02:52;99692.97;;;6.36;79.31
28181;BME280;15464;50.988;10.318;2024-01-25T03:05:19;99706.31;;;6.33;79.69
28181;BME280;15464;50.988;10.318;2024-01-25T03:07:46;99710.81;;;6.31;80.34
28181;BME280;15464;50.988;10.318;2024-01-25T03:10:13;99701.03;;;6.33;80.20
28181;BME280;15464;50.988;10.318;2024-01-25T03:12:40;99696.88;;;6.29;80.92
28181;BME280;15464;50.988;10.318;2024-01-25T03:15:07;99710.06;;;6.29;80.37
28181;BME280;15464;50.988;10.318;2024-01-25T03:17:34;99703.69;;;6.33;79.79
28181;BME280;15464;50.988;10.318;2024-01-25T03:20:01;99704.53;;;6.34;79.47
28181;BME280;15464;50.988;10.318;2024-01-25T03:22:29;99696.88;;;6.29;79.78
28181;BME280;15464;50.988;10.318;2024-01-25T03:24:56;99712.69;;;6.29;80.16
28181;BME280;15464;50.988;10.318;2024-01-25T03:27:22;99705.88;;;6.25;80.80
28181;BME280;15464;50.988;10.318;2024-01-25T03:29:49;99695.53;;;6.22;80.30
28181;BME280;15464;50.988;10.318;2024-01-25T03:32:16;99707.81;;;6.37;79.61
28181;BME280;15464;50.988;10.318;2024-01-25T03:34:42;99724.94;;;6.30;80.76
28181;BME280;15464;50.988;10.318;2024-01-25T03:37:10;99745.25;;;6.28;80.72
28181;BME280;15464;50.988;10.318;2024-01-25T03:39:37;99744.31;;;6.29;80.55
28181;BME280;15464;50.988;10.318;2024-01-25T03:42:04;99733.94;;;6.26;81.21
28181;BME280;15464;50.988;10.318;2024-01-25T03:44:30;99740.03;;;6.27;80.55
28181;BME280;15464;50.988;10.318;2024-01-25T03:46:58;99741.81;;;6.26;80.37
28181;BME280;15464;50.988;10.318;2024-01-25T03:49:25;99737.69;;;6.22;81.42
28181;BME280;15464;50.988;10.318;2024-01-25T03:51:52;99740.47;;;6.19;80.97
28181;BME280;15464;50.988;10.318;2024-01-25T03:54:18;99744.97;;;6.17;81.15
28181;BME280;15464;50.988;10.318;2024-01-25T03:56:45;99751.63;;;6.24;80.37
28181;BME280;15464;50.988;10.318;2024-01-25T03:59:12;99758.56;;;6.25;80.37
28181;BME280;15464;50.988;10.318;2024-01-25T04:01:46;99763.84;;;6.25;80.46
28181;BME280;15464;50.988;10.318;2024-01-25T04:04:14;99765.88;;;6.20;80.61
28181;BME280;15464;50.988;10.318;2024-01-25T04:06:43;99778.19;;;6.20;80.40
28181;BME280;15464;50.988;10.318;2024-01-25T04:09:10;99780.16;;;6.16;80.72
28181;BME280;15464;50.988;10.318;2024-01-25T04:11:37;99776.47;;;6.19;80.91
28181;BME280;15464;50.988;10.318;2024-01-25T04:14:04;99770.53;;;6.15;80.76
28181;BME280;15464;50.988;10.318;2024-01-25T04:16:34;99763.13;;;6.06;81.51
28181;BME280;15464;50.988;10.318;2024-01-25T04:19:01;99772.41;;;6.13;80.50
28181;BME280;15464;50.988;10.318;2024-01-25T04:21:28;99791.69;;;6.14;80.50
28181;BME280;15464;50.988;10.318;2024-01-25T04:23:55;99781.16;;;6.14;80.75
28181;BME280;15464;50.988;10.318;2024-01-25T04:26:22;99777.25;;;6.05;81.89
28181;BME280;15464;50.988;10.318;2024-01-25T04:28:49;99777.25;;;6.05;81.34
28181;BME280;15464;50.988;10.318;2024-01-25T04:31:17;99779.03;;;6.04;81.53
28181;BME280;15464;50.988;10.318;2024-01-25T04:33:44;99778.50;;;5.98;81.65
28181;BME280;15464;50.988;10.318;2024-01-25T04:36:14;99782.00;;;5.98;81.65
28181;BME280;15464;50.988;10.318;2024-01-25T04:38:41;99786.41;;;5.98;81.64
28181;BME280;15464;50.988;10.318;2024-01-25T04:41:08;99796.09;;;5.97;81.62
28181;BME280;15464;50.988;10.318;2024-01-25T04:43:35;99806.44;;;6.00;81.43
28181;BME280;15464;50.988;10.318;2024-01-25T04:46:05;99801.34;;;5.97;81.71
28181;BME280;15464;50.988;10.318;2024-01-25T04:48:32;99805.88;;;6.11;80.24
28181;BME280;15464;50.988;10.318;2024-01-25T04:50:59;99808.00;;;6.04;80.96
28181;BME280;15464;50.988;10.318;2024-01-25T04:53:26;99803.41;;;6.08;80.40
28181;BME280;15464;50.988;10.318;2024-01-25T04:55:54;99813.34;;;6.03;80.79
28181;BME280;15464;50.988;10.318;2024-01-25T04:58:21;99828.53;;;5.98;81.14
28181;BME280;15464;50.988;10.318;2024-01-25T05:00:48;99823.09;;;6.01;80.39
28181;BME280;15464;50.988;10.318;2024-01-25T05:03:18;99828.47;;;5.99;80.90
28181;BME280;15464;50.988;10.318;2024-01-25T05:05:45;99832.56;;;6.05;79.77
28181;BME280;15464;50.988;10.318;2024-01-25T05:08:12;99837.03;;;6.03;79.77
28181;BME280;15464;50.988;10.318;2024-01-25T05:10:38;99836.88;;;6.06;79.08
28181;BME280;15464;50.988;10.318;2024-01-25T05:13:05;99840.28;;;6.08;78.99
28181;BME280;15464;50.988;10.318;2024-01-25T05:15:32;99838.56;;;6.07;78.55
28181;BME280;15464;50.988;10.318;2024-01-25T05:17:59;99840.28;;;6.08;78.35
28181;BME280;15464;50.988;10.318;2024-01-25T05:20:26;99842.84;;;6.10;78.19
28181;BME280;15464;50.988;10.318;2024-01-25T05:22:59;99849.81;;;6.11;78.15
28181;BME280;15464;50.988;10.318;2024-01-25T05:25:26;99849.81;;;6.11;78.55
28181;BME280;15464;50.988;10.318;2024-01-25T05:27:55;99859.50;;;6.10;78.32
28181;BME280;15464;50.988;10.318;2024-01-25T05:30:23;99863.06;;;6.09;77.85
28181;BME280;15464;50.988;10.318;2024-01-25T05:32:50;99870.03;;;6.10;77.92
28181;BME280;15464;50.988;10.318;2024-01-25T05:35:19;99863.97;;;6.08;78.21
28181;BME280;15464;50.988;10.318;2024-01-25T05:37:46;99866.47;;;6.11;78.03
28181;BME280;15464;50.988;10.318;2024-01-25T05:40:12;99883.28;;;6.08;78.12
28181;BME280;15464;50.988;10.318;2024-01-25T05:42:39;99887.53;;;6.11;77.67
28181;BME280;15464;50.988;10.318;2024-01-25T05:45:07;99887.63;;;6.10;78.17
28181;BME280;15464;50.988;10.318;2024-01-25T05:47:35;99889.25;;;6.12;77.45
28181;BME280;15464;50.988;10.318;2024-01-25T05:50:03;99890.38;;;6.06;78.48
28181;BME280;15464;50.988;10.318;2024-01-25T05:52:31;99892.09;;;6.07;78.39
28181;BME280;15464;50.988;10.318;2024-01-25T05:54:58;99897.28;;;6.09;77.73
28181;BME280;15464;50.988;10.318;2024-01-25T05:57:31;99899.94;;;6.09;77.95
28181;BME280;15464;50.988;10.318;2024-01-25T05:59:58;99908.75;;;6.08;78.13
28181;BME280;15464;50.988;10.318;2024-01-25T06:02:26;99914.94;;;6.07;78.28
28181;BME280;15464;50.988;10.318;2024-01-25T06:04:52;99921.13;;;6.06;78.17
28181;BME280;15464;50.988;10.318;2024-01-25T06:07:20;99917.44;;;6.10;77.67
28181;BME280;15464;50.988;10.318;2024-01-25T06:09:47;99913.88;;;6.11;77.91
28181;BME280;15464;50.988;10.318;2024-01-25T06:12:14;99921.91;;;6.08;77.97
28181;BME280;15464;50.988;10.318;2024-01-25T06:14:41;99920.13;;;6.08;77.09
28181;BME280;15464;50.988;10.318;2024-01-25T06:17:07;99916.59;;;6.10;76.32
28181;BME280;15464;50.988;10.318;2024-01-25T06:19:34;99927.97;;;6.10;76.76
28181;BME280;15464;50.988;10.318;2024-01-25T06:22:01;99933.47;;;6.05;77.24
28181;BME280;15464;50.988;10.318;2024-01-25T06:24:29;99934.41;;;6.04;77.66
28181;BME280;15464;50.988;10.318;2024-01-25T06:26:56;99926.41;;;6.06;75.80
28181;BME280;15464;50.988;10.318;2024-01-25T06:29:23;99931.66;;;6.06;77.07
28181;BME280;15464;50.988;10.318;2024-01-25T06:31:50;99936.13;;;6.05;76.92
28181;BME280;15464;50.988;10.318;2024-01-25T06:34:17;99942.91;;;6.10;76.24
28181;BME280;15464;50.988;10.318;2024-01-25T06:36:44;99942.06;;;6.09;76.78
28181;BME280;15464;50.988;10.318;2024-01-25T06:39:11;99937.72;;;6.08;76.67
28181;BME280;15464;50.988;10.318;2024-01-25T06:41:38;99959.88;;;6.04;76.68
28181;BME280;15464;50.988;10.318;2024-01-25T06:44:04;99963.38;;;6.04;76.30
28181;BME280;15464;50.988;10.318;2024-01-25T06:46:31;99964.91;;;6.08;75.53
28181;BME280;15464;50.988;10.318;2024-01-25T06:48:58;99961.59;;;6.05;75.98
28181;BME280;15464;50.988;10.318;2024-01-25T06:51:25;99971.09;;;6.07;74.72
28181;BME280;15464;50.988;10.318;2024-01-25T06:53:52;99973.97;;;6.03;75.64
28181;BME280;15464;50.988;10.318;2024-01-25T06:56:19;99977.53;;;6.02;76.15
28181;BME280;15464;50.988;10.318;2024-01-25T06:58:46;99986.22;;;6.04;74.73
28181;BME280;15464;50.988;10.318;2024-01-25T07:01:13;99983.66;;;6.02;75.21
28181;BME280;15464;50.988;10.318;2024-01-25T07:03:40;99985.69;;;5.97;75.97
28181;BME280;15464;50.988;10.318;2024-01-25T07:06:07;99984.03;;;5.95;75.84
28181;BME280;15464;50.988;10.318;2024-01-25T07:08:34;99982.50;;;5.91;76.16
28181;BME280;15464;50.988;10.318;2024-01-25T07:11:01;99974.59;;;5.91;75.79
28181;BME280;15464;50.988;10.318;2024-01-25T07:13:28;99973.75;;;5.90;75.28
28181;BME280;15464;50.988;10.318;2024-01-25T07:15:55;99985.25;;;5.88;76.17
28181;BME280;15464;50.988;10.318;2024-01-25T07:18:22;99990.66;;;5.85;76.28
28181;BME280;15464;50.988;10.318;2024-01-25T07:20:51;99980.91;;;5.87;76.35
28181;BME280;15464;50.988;10.318;2024-01-25T07:23:18;99978.34;;;5.85;76.28
28181;BME280;15464;50.988;10.318;2024-01-25T07:25:45;99975.84;;;5.82;76.29
28181;BME280;15464;50.988;10.318;2024-01-25T07:28:12;99976.88;;;5.80;76.84
28181;BME280;15464;50.988;10.318;2024-01-25T07:30:39;99983.69;;;5.84;76.36
28181;BME280;15464;50.988;10.318;2024-01-25T07:33:06;99984.47;;;5.86;76.38
28181;BME280;15464;50.988;10.318;2024-01-25T07:35:32;99979.41;;;5.81;76.90
28181;BME280;15464;50.988;10.318;2024-01-25T07:37:59;99990.19;;;5.77;77.38
28181;BME280;15464;50.988;10.318;2024-01-25T07:40:26;99988.16;;;5.82;76.84
28181;BME280;15464;50.988;10.318;2024-01-25T07:42:53;99992.69;;;5.80;76.74
28181;BME280;15464;50.988;10.318;2024-01-25T07:45:20;99999.00;;;5.76;75.96
28181;BME280;15464;50.988;10.318;2024-01-25T07:47:46;100010.47;;;5.75;76.74
28181;BME280;15464;50.988;10.318;2024-01-25T07:50:19;100014.16;;;5.71;77.33
28181;BME280;15464;50.988;10.318;2024-01-25T07:52:46;100026.41;;;5.72;77.25
28181;BME280;15464;50.988;10.318;2024-01-25T07:55:13;100030.69;;;5.74;76.80
28181;BME280;15464;50.988;10.318;2024-01-25T07:57:40;100028.91;;;5.75;76.62
28181;BME280;15464;50.988;10.318;2024-01-25T08:00:07;100031.44;;;5.76;77.20
28181;BME280;15464;50.988;10.318;2024-01-25T08:02:38;100031.38;;;5.78;76.98
28181;BME280;15464;50.988;10.318;2024-01-25T08:05:06;100033.03;;;5.80;75.58
28181;BME280;15464;50.988;10.318;2024-01-25T08:07:33;100041.66;;;5.82;76.26
28181;BME280;15464;50.988;10.318;2024-01-25T08:10:00;100042.59;;;5.81;76.38
28181;BME280;15464;50.988;10.318;2024-01-25T08:12:27;100048.72;;;5.82;76.58
28181;BME280;15464;50.988;10.318;2024-01-25T08:14:54;100047.97;;;5.80;77.43
28181;BME280;15464;50.988;10.318;2024-01-25T08:17:21;100045.31;;;5.80;76.37
28181;BME280;15464;50.988;10.318;2024-01-25T08:19:48;100049.50;;;5.84;76.22
28181;BME280;15464;50.988;10.318;2024-01-25T08:22:18;100042.53;;;5.83;77.00
28181;BME280;15464;50.988;10.318;2024-01-25T08:24:48;100034.63;;;5.83;76.92
28181;BME280;15464;50.988;10.318;2024-01-25T08:27:15;100031.06;;;5.84;76.88
28181;BME280;15464;50.988;10.318;2024-01-25T08:29:42;100041.78;;;5.81;77.85
28181;BME280;15464;50.988;10.318;2024-01-25T08:32:09;100044.41;;;5.81;77.22
28181;BME280;15464;50.988;10.318;2024-01-25T08:34:35;100047.88;;;5.81;77.56
28181;BME280;15464;50.988;10.318;2024-01-25T08:37:02;100045.75;;;5.89;77.42
28181;BME280;15464;50.988;10.318;2024-01-25T08:39:29;100045.63;;;5.92;77.71
28181;BME280;15464;50.988;10.318;2024-01-25T08:41:56;100050.66;;;5.97;76.33
28181;BME280;15464;50.988;10.318;2024-01-25T08:44:27;100055.00;;;5.98;76.04
28181;BME280;15464;50.988;10.318;2024-01-25T08:46:54;100056.41;;;6.05;75.92
28181;BME280;15464;50.988;10.318;2024-01-25T08:49:20;100059.66;;;6.10;76.36
28181;BME280;15464;50.988;10.318;2024-01-25T08:51:47;100057.94;;;6.09;76.30
28181;BME280;15464;50.988;10.318;2024-01-25T08:54:14;100057.81;;;6.12;76.31
28181;BME280;15464;50.988;10.318;2024-01-25T08:56:41;100068.03;;;6.18;75.72
28181;BME280;15464;50.988;10.318;2024-01-25T08:59:08;100067.75;;;6.24;76.53
28181;BME280;15464;50.988;10.318;2024-01-25T09:01:34;100069.41;;;6.25;74.62
28181;BME280;15464;50.988;10.318;2024-01-25T09:04:01;100076.41;;;6.26;75.56
28181;BME280;15464;50.988;10.318;2024-01-25T09:06:30;100077.81;;;6.33;75.85
28181;BME280;15464;50.988;10.318;2024-01-25T09:08:57;100077.66;;;6.36;75.06
28181;BME280;15464;50.988;10.318;2024-01-25T09:11:23;100083.69;;;6.38;73.96
28181;BME280;15464;50.988;10.318;2024-01-25T09:13:50;100083.69;;;6.38;74.12
28181;BME280;15464;50.988;10.318;2024-01-25T09:16:17;100077.81;;;6.33;74.53
28181;BME280;15464;50.988;10.318;2024-01-25T09:18:44;100094.84;;;6.43;74.19
28181;BME280;15464;50.988;10.318;2024-01-25T09:21:11;100089.69;;;6.42;74.49
28181;BME280;15464;50.988;10.318;2024-01-25T09:23:39;100099.44;;;6.40;74.60
28181;BME280;15464;50.988;10.318;2024-01-25T09:26:06;100102.00;;;6.41;74.03
28181;BME280;15464;50.988;10.318;2024-01-25T09:28:32;100097.59;;;6.42;74.49
28181;BME280;15464;50.988;10.318;2024-01-25T09:31:00;100103.84;;;6.39;74.43
28181;BME280;15464;50.988;10.318;2024-01-25T09:33:27;100103.59;;;6.44;74.61
28181;BME280;15464;50.988;10.318;2024-01-25T09:35:55;100111.91;;;6.36;74.17
28181;BME280;15464;50.988;10.318;2024-01-25T09:38:23;100104.16;;;6.33;73.56
28181;BME280;15464;50.988;10.318;2024-01-25T09:40:50;100105.69;;;6.37;73.27
28181;BME280;15464;50.988;10.318;2024-01-25T09:43:18;100108.03;;;6.43;73.80
28181;BME280;15464;50.988;10.318;2024-01-25T09:45:48;100111.75;;;6.39;74.08
28181;BME280;15464;50.988;10.318;2024-01-25T09:48:19;100111.81;;;6.38;74.24
28181;BME280;15464;50.988;10.318;2024-01-25T09:50:47;100109.06;;;6.41;73.16
28181;BME280;15464;50.988;10.318;2024-01-25T09:53:20;100113.03;;;6.50;73.62
28181;BME280;15464;50.988;10.318;2024-01-25T09:56:09;100105.94;;;6.50;72.73
28181;BME280;15464;50.988;10.318;2024-01-25T09:58:41;100106.47;;;6.57;73.44
28181;BME280;15464;50.988;10.318;2024-01-25T10:01:09;100109.91;;;6.59;74.19
28181;BME280;15464;50.988;10.318;2024-01-25T10:03:38;100116.88;;;6.60;73.54
28181;BME280;15464;50.988;10.318;2024-01-25T10:06:06;100119.59;;;6.58;73.44
28181;BME280;15464;50.988;10.318;2024-01-25T10:08:34;100131.69;;;6.62;73.04
28181;BME280;15464;50.988;10.318;2024-01-25T10:11:01;100125.66;;;6.77;72.19
28181;BME280;15464;50.988;10.318;2024-01-25T10:13:28;100127.34;;;6.78;73.20
28181;BME280;15464;50.988;10.318;2024-01-25T10:15:56;100128.03;;;6.82;73.19
28181;BME280;15464;50.988;10.318;2024-01-25T10:18:23;100128.75;;;6.85;72.69
28181;BME280;15464;50.988;10.318;2024-01-25T10:20:56;100121.06;;;6.81;72.66
28181;BME280;15464;50.988;10.318;2024-01-25T10:23:23;100120.38;;;6.77;72.08
28181;BME280;15464;50.988;10.318;2024-01-25T10:25:52;100122.44;;;6.88;72.48
28181;BME280;15464;50.988;10.318;2024-01-25T10:28:19;100120.81;;;7.03;71.56
28181;BME280;15464;50.988;10.318;2024-01-25T10:30:46;100115.91;;;7.12;71.83
28181;BME280;15464;50.988;10.318;2024-01-25T10:33:15;100126.69;;;7.08;69.88
28181;BME280;15464;50.988;10.318;2024-01-25T10:35:44;100127.25;;;6.97;70.20
28181;BME280;15464;50.988;10.318;2024-01-25T10:38:17;100119.50;;;7.11;70.90
28181;BME280;15464;50.988;10.318;2024-01-25T10:40:46;100124.31;;;7.03;69.15
28181;BME280;15464;50.988;10.318;2024-01-25T10:43:15;100113.91;;;7.00;70.24
28181;BME280;15464;50.988;10.318;2024-01-25T10:45:43;100106.69;;;7.04;69.56
28181;BME280;15464;50.988;10.318;2024-01-25T10:48:11;100103.00;;;6.91;70.50
28181;BME280;15464;50.988;10.318;2024-01-25T10:50:37;100107.09;;;6.96;70.88
28181;BME280;15464;50.988;10.318;2024-01-25T10:53:07;100119.03;;;7.03;70.67
28181;BME280;15464;50.988;10.318;2024-01-25T10:55:34;100107.94;;;6.97;69.47
28181;BME280;15464;50.988;10.318;2024-01-25T10:58:01;100120.53;;;6.92;70.23
28181;BME280;15464;50.988;10.318;2024-01-25T11:00:31;100116.84;;;6.94;70.30
28181;BME280;15464;50.988;10.318;2024-01-25T11:02:58;100122.84;;;6.98;69.26
28181;BME280;15464;50.988;10.318;2024-01-25T11:07:54;100114.16;;;6.96;69.30
28181;BME280;15464;50.988;10.318;2024-01-25T11:10:25;100124.91;;;7.08;69.38
28181;BME280;15464;50.988;10.318;2024-01-25T11:12:56;100121.16;;;7.12;68.82
28181;BME280;15464;50.988;10.318;2024-01-25T11:15:31;100126.13;;;7.18;69.53
28181;BME280;15464;50.988;10.318;2024-01-25T11:18:00;100128.16;;;7.13;69.92
28181;BME280;15464;50.988;10.318;2024-01-25T11:20:28;100128.66;;;7.04;68.41
28181;BME280;15464;50.988;10.318;2024-01-25T11:23:04;100144.81;;;6.98;69.19
28181;BME280;15464;50.988;10.318;2024-01-25T11:25:35;100136.72;;;7.01;69.44
28181;BME280;15464;50.988;10.318;2024-01-25T11:28:04;100131.63;;;6.98;69.92
28181;BME280;15464;50.988;10.318;2024-01-25T11:30:34;100128.59;;;7.06;69.73
28181;BME280;15464;50.988;10.318;2024-01-25T11:33:04;100125.16;;;7.04;69.38
28181;BME280;15464;50.988;10.318;2024-01-25T11:35:32;100120.41;;;7.10;68.88
28181;BME280;15464;50.988;10.318;2024-01-25T11:37:59;100111.78;;;7.07;68.97
28181;BME280;15464;50.988;10.318;2024-01-25T11:40:26;100109.88;;;7.10;69.39
28181;BME280;15464;50.988;10.318;2024-01-25T11:42:55;100097.03;;;7.20;68.96
28181;BME280;15464;50.988;10.318;2024-01-25T11:45:22;100095.84;;;7.25;68.67
28181;BME280;15464;50.988;10.318;2024-01-25T11:47:49;100095.38;;;7.35;69.31
28181;BME280;15464;50.988;10.318;2024-01-25T11:50:16;100095.53;;;7.32;69.22
28181;BME280;15464;50.988;10.318;2024-01-25T11:52:43;100081.91;;;7.39;69.42
28181;BME280;15464;50.988;10.318;2024-01-25T11:55:11;100081.31;;;7.50;69.29
28181;BME280;15464;50.988;10.318;2024-01-25T11:57:39;100091.66;;;7.54;68.11
28181;BME280;15464;50.988;10.318;2024-01-25T12:00:13;100089.69;;;7.58;68.88
28181;BME280;15464;50.988;10.318;2024-01-25T12:02:42;100097.00;;;7.53;67.26
28181;BME280;15464;50.988;10.318;2024-01-25T12:05:10;100100.06;;;7.45;67.76
28181;BME280;15464;50.988;10.318;2024-01-25T12:07:39;100098.97;;;7.49;67.24
28181;BME280;15464;50.988;10.318;2024-01-25T12:10:08;100096.34;;;7.49;68.11
28181;BME280;15464;50.988;10.318;2024-01-25T12:12:36;100102.38;;;7.51;66.44
28181;BME280;15464;50.988;10.318;2024-01-25T12:15:05;100097.50;;;7.44;66.27
28181;BME280;15464;50.988;10.318;2024-01-25T12:17:34;100094.19;;;7.56;67.00
28181;BME280;15464;50.988;10.318;2024-01-25T12:20:05;100098.91;;;7.66;66.07
28181;BME280;15464;50.988;10.318;2024-01-25T12:22:38;100096.00;;;7.71;65.58
28181;BME280;15464;50.988;10.318;2024-01-25T12:25:09;100089.44;;;7.62;64.29
28181;BME280;15464;50.988;10.318;2024-01-25T12:27:39;100086.38;;;7.70;66.35
28181;BME280;15464;50.988;10.318;2024-01-25T12:30:07;100078.19;;;7.59;63.90
28181;BME280;15464;50.988;10.318;2024-01-25T12:32:35;100078.97;;;7.77;66.03
28181;BME280;15464;50.988;10.318;2024-01-25T12:35:02;100076.69;;;7.86;65.48
28181;BME280;15464;50.988;10.318;2024-01-25T12:37:30;100083.81;;;7.84;63.45
28181;BME280;15464;50.988;10.318;2024-01-25T12:39:57;100081.59;;;7.77;66.11
28181;BME280;15464;50.988;10.318;2024-01-25T12:42:24;100081.09;;;7.70;65.33
28181;BME280;15464;50.988;10.318;2024-01-25T12:44:53;100077.69;;;7.68;67.22
28181;BME280;15464;50.988;10.318;2024-01-25T12:47:23;100076.34;;;7.61;67.17
28181;BME280;15464;50.988;10.318;2024-01-25T12:49:50;100072.06;;;7.74;65.39
28181;BME280;15464;50.988;10.318;2024-01-25T12:52:17;100063.72;;;7.66;66.46
28181;BME280;15464;50.988;10.318;2024-01-25T12:54:44;100072.56;;;7.65;65.74
28181;BME280;15464;50.988;10.318;2024-01-25T12:57:11;100060.66;;;7.42;67.19
28181;BME280;15464;50.988;10.318;2024-01-25T12:59:38;100059.59;;;7.45;67.58